sensor_id;sensor_type;location;lat;lon;timestamp;P1;durP1;ratioP1;P2;durP2;ratioP2
75914;SDS011;64593;51.050;13.780;2023-10-13T06:09:26;9.27;;;4.60;;
75914;SDS011;64593;51.050;13.780;2023-10-13T06:14:48;6.07;;;3.40;;
75914;SDS011;64593;51.050;13.780;2023-10-13T06:20:38;6.15;;;3.78;;
75914;SDS011;64593;51.050;13.780;2023-10-13T06:25:58;8.70;;;3.50;;
75914;SDS011;64593;51.050;13.780;2023-10-13T06:31:21;6.28;;;4.00;;
75914;SDS011;64593;51.050;13.780;2023-10-13T06:36:26;7.57;;;4.43;;
75914;SDS011;64593;51.050;13.780;2023-10-13T06:41:28;12.10;;;4.45;;
75914;SDS011;64593;51.050;13.780;2023-10-13T06:46:41;10.15;;;5.85;;
75914;SDS011;64593;51.050;13.780;2023-10-13T06:51:46;13.13;;;6.35;;
75914;SDS011;64593;51.050;13.780;2023-10-13T07:01:56;12.52;;;7.22;;
75914;SDS011;64593;51.050;13.780;2023-10-13T07:07:21;13.27;;;7.20;;
75914;SDS011;64593;51.050;13.780;2023-10-13T07:12:26;15.07;;;8.95;;
75914;SDS011;64593;51.050;13.780;2023-10-13T07:17:27;14.73;;;8.80;;
75914;SDS011;64593;51.050;13.780;2023-10-13T07:22:34;15.80;;;9.73;;
75914;SDS011;64593;51.050;13.780;2023-10-13T07:27:41;14.35;;;10.02;;
75914;SDS011;64593;51.050;13.780;2023-10-13T07:32:43;14.10;;;9.48;;
75914;SDS011;64593;51.050;13.780;2023-10-13T07:37:48;16.85;;;10.38;;
75914;SDS011;64593;51.050;13.780;2023-10-13T07:42:54;16.45;;;10.95;;
75914;SDS011;64593;51.050;13.780;2023-10-13T07:48:10;15.75;;;9.60;;
75914;SDS011;64593;51.050;13.780;2023-10-13T07:53:25;16.48;;;10.70;;
75914;SDS011;64593;51.050;13.780;2023-10-13T07:58:29;13.93;;;8.90;;
75914;SDS011;64593;51.050;13.780;2023-10-13T08:03:38;13.10;;;9.50;;
75914;SDS011;64593;51.050;13.780;2023-10-13T08:08:46;16.88;;;8.25;;
75914;SDS011;64593;51.050;13.780;2023-10-13T08:14:16;11.40;;;7.80;;
75914;SDS011;64593;51.050;13.780;2023-10-13T08:19:37;10.68;;;7.72;;
75914;SDS011;64593;51.050;13.780;2023-10-13T08:24:50;11.52;;;7.15;;
75914;SDS011;64593;51.050;13.780;2023-10-13T08:29:52;11.57;;;6.53;;
75914;SDS011;64593;51.050;13.780;2023-10-13T08:35:03;9.70;;;6.60;;
75914;SDS011;64593;51.050;13.780;2023-10-13T08:40:07;13.65;;;8.70;;
75914;SDS011;64593;51.050;13.780;2023-10-13T08:45:35;10.65;;;5.68;;
75914;SDS011;64593;51.050;13.780;2023-10-13T08:50:47;10.68;;;4.20;;
75914;SDS011;64593;51.050;13.780;2023-10-13T08:55:50;9.68;;;3.97;;
75914;SDS011;64593;51.050;13.780;2023-10-13T09:01:06;5.63;;;2.92;;
75914;SDS011;64593;51.050;13.780;2023-10-13T09:06:20;6.55;;;3.40;;
75914;SDS011;64593;51.050;13.780;2023-10-13T09:11:24;5.22;;;2.50;;
75914;SDS011;64593;51.050;13.780;2023-10-13T09:17:00;7.25;;;2.30;;
75914;SDS011;64593;51.050;13.780;2023-10-13T09:22:09;5.22;;;1.80;;
75914;SDS011;64593;51.050;13.780;2023-10-13T09:27:30;4.93;;;1.38;;
75914;SDS011;64593;51.050;13.780;2023-10-13T09:32:33;5.07;;;1.50;;
75914;SDS011;64593;51.050;13.780;2023-10-13T09:37:46;4.50;;;1.25;;
75914;SDS011;64593;51.050;13.780;2023-10-13T09:42:52;4.90;;;1.77;;
75914;SDS011;64593;51.050;13.780;2023-10-13T09:48:00;5.55;;;1.52;;
75914;SDS011;64593;51.050;13.780;2023-10-13T09:58:16;7.65;;;3.58;;
75914;SDS011;64593;51.050;13.780;2023-10-13T10:03:54;9.75;;;4.20;;
75914;SDS011;64593;51.050;13.780;2023-10-13T10:09:38;8.88;;;5.75;;
75914;SDS011;64593;51.050;13.780;2023-10-13T10:20:34;14.20;;;9.85;;
75914;SDS011;64593;51.050;13.780;2023-10-13T10:26:10;15.45;;;8.80;;
75914;SDS011;64593;51.050;13.780;2023-10-13T10:31:21;13.35;;;8.80;;
75914;SDS011;64593;51.050;13.780;2023-10-13T10:36:36;13.88;;;9.13;;
75914;SDS011;64593;51.050;13.780;2023-10-13T10:42:13;16.75;;;8.73;;
75914;SDS011;64593;51.050;13.780;2023-10-13T10:47:25;14.55;;;9.70;;
75914;SDS011;64593;51.050;13.780;2023-10-13T10:52:33;13.40;;;5.47;;
75914;SDS011;64593;51.050;13.780;2023-10-13T10:57:45;7.55;;;3.95;;
75914;SDS011;64593;51.050;13.780;2023-10-13T11:02:55;6.50;;;2.60;;
75914;SDS011;64593;51.050;13.780;2023-10-13T11:08:25;8.00;;;2.40;;
75914;SDS011;64593;51.050;13.780;2023-10-13T11:13:42;15.73;;;3.10;;
75914;SDS011;64593;51.050;13.780;2023-10-13T11:19:02;9.57;;;2.63;;
75914;SDS011;64593;51.050;13.780;2023-10-13T11:24:07;7.45;;;2.30;;
75914;SDS011;64593;51.050;13.780;2023-10-13T11:29:38;12.48;;;2.20;;
75914;SDS011;64593;51.050;13.780;2023-10-13T11:35:07;8.57;;;2.70;;
75914;SDS011;64593;51.050;13.780;2023-10-13T11:46:13;9.57;;;2.97;;
75914;SDS011;64593;51.050;13.780;2023-10-13T11:51:45;14.02;;;2.83;;
75914;SDS011;64593;51.050;13.780;2023-10-13T11:57:13;13.45;;;3.53;;
75914;SDS011;64593;51.050;13.780;2023-10-13T12:02:20;15.27;;;4.10;;
75914;SDS011;64593;51.050;13.780;2023-10-13T12:07:53;18.55;;;6.72;;
75914;SDS011;64593;51.050;13.780;2023-10-13T12:13:30;15.80;;;4.80;;
75914;SDS011;64593;51.050;13.780;2023-10-13T12:23:37;13.90;;;5.13;;
75914;SDS011;64593;51.050;13.780;2023-10-13T12:28:39;17.73;;;6.90;;
75914;SDS011;64593;51.050;13.780;2023-10-13T12:34:17;18.70;;;5.30;;
75914;SDS011;64593;51.050;13.780;2023-10-13T12:39:34;10.85;;;5.18;;
75914;SDS011;64593;51.050;13.780;2023-10-13T12:44:55;20.95;;;5.38;;
75914;SDS011;64593;51.050;13.780;2023-10-13T12:50:52;13.07;;;4.50;;
75914;SDS011;64593;51.050;13.780;2023-10-13T12:56:34;14.48;;;4.30;;
75914;SDS011;64593;51.050;13.780;2023-10-13T13:02:07;13.00;;;4.72;;
75914;SDS011;64593;51.050;13.780;2023-10-13T13:07:18;12.48;;;6.22;;
75914;SDS011;64593;51.050;13.780;2023-10-13T13:12:19;15.40;;;4.25;;
75914;SDS011;64593;51.050;13.780;2023-10-13T13:17:21;12.60;;;4.40;;
75914;SDS011;64593;51.050;13.780;2023-10-13T13:22:48;11.73;;;5.38;;
75914;SDS011;64593;51.050;13.780;2023-10-13T13:27:50;11.35;;;4.55;;
75914;SDS011;64593;51.050;13.780;2023-10-13T13:32:52;9.82;;;4.00;;
75914;SDS011;64593;51.050;13.780;2023-10-13T13:38:19;12.05;;;4.03;;
75914;SDS011;64593;51.050;13.780;2023-10-13T13:43:49;10.07;;;3.75;;
75914;SDS011;64593;51.050;13.780;2023-10-13T13:48:52;11.98;;;3.60;;
75914;SDS011;64593;51.050;13.780;2023-10-13T13:54:00;8.80;;;3.45;;
75914;SDS011;64593;51.050;13.780;2023-10-13T13:59:05;15.63;;;3.75;;
75914;SDS011;64593;51.050;13.780;2023-10-13T14:04:36;10.75;;;3.75;;
75914;SDS011;64593;51.050;13.780;2023-10-13T14:15:10;12.15;;;4.20;;
75914;SDS011;64593;51.050;13.780;2023-10-13T14:20:46;14.93;;;3.75;;
75914;SDS011;64593;51.050;13.780;2023-10-13T14:25:52;13.30;;;3.30;;
75914;SDS011;64593;51.050;13.780;2023-10-13T14:31:19;11.75;;;3.83;;
75914;SDS011;64593;51.050;13.780;2023-10-13T14:36:21;15.88;;;4.18;;
75914;SDS011;64593;51.050;13.780;2023-10-13T14:41:48;13.63;;;4.18;;
75914;SDS011;64593;51.050;13.780;2023-10-13T14:47:15;11.98;;;3.60;;
75914;SDS011;64593;51.050;13.780;2023-10-13T14:52:42;9.82;;;3.90;;
75914;SDS011;64593;51.050;13.780;2023-10-13T14:58:10;15.30;;;4.00;;
75914;SDS011;64593;51.050;13.780;2023-10-13T15:03:17;15.38;;;3.92;;
75914;SDS011;64593;51.050;13.780;2023-10-13T15:08:45;16.27;;;3.97;;
75914;SDS011;64593;51.050;13.780;2023-10-13T15:13:49;9.60;;;3.75;;
75914;SDS011;64593;51.050;13.780;2023-10-13T15:19:17;16.27;;;4.10;;
75914;SDS011;64593;51.050;13.780;2023-10-13T15:24:19;10.75;;;3.90;;
75914;SDS011;64593;51.050;13.780;2023-10-13T15:29:55;13.80;;;3.67;;
75914;SDS011;64593;51.050;13.780;2023-10-13T15:35:00;15.25;;;4.20;;
75914;SDS011;64593;51.050;13.780;2023-10-13T15:40:26;14.88;;;3.80;;
75914;SDS011;64593;51.050;13.780;2023-10-13T15:45:30;13.48;;;4.43;;
75914;SDS011;64593;51.050;13.780;2023-10-13T15:50:40;15.13;;;4.00;;
75914;SDS011;64593;51.050;13.780;2023-10-13T15:55:42;9.95;;;4.32;;
75914;SDS011;64593;51.050;13.780;2023-10-13T16:01:12;12.35;;;3.75;;
75914;SDS011;64593;51.050;13.780;2023-10-13T16:06:15;13.40;;;4.43;;
75914;SDS011;64593;51.050;13.780;2023-10-13T16:11:42;15.85;;;3.90;;
75914;SDS011;64593;51.050;13.780;2023-10-13T16:21:48;10.50;;;3.15;;
75914;SDS011;64593;51.050;13.780;2023-10-13T16:27:16;8.93;;;3.88;;
75914;SDS011;64593;51.050;13.780;2023-10-13T16:32:43;15.23;;;4.68;;
75914;SDS011;64593;51.050;13.780;2023-10-13T16:37:48;11.45;;;4.30;;
75914;SDS011;64593;51.050;13.780;2023-10-13T16:42:55;12.35;;;4.47;;
75914;SDS011;64593;51.050;13.780;2023-10-13T16:47:57;9.23;;;4.03;;
75914;SDS011;64593;51.050;13.780;2023-10-13T16:52:59;14.65;;;3.75;;
75914;SDS011;64593;51.050;13.780;2023-10-13T16:58:26;14.18;;;4.15;;
75914;SDS011;64593;51.050;13.780;2023-10-13T17:03:54;12.77;;;4.32;;
75914;SDS011;64593;51.050;13.780;2023-10-13T17:09:21;13.65;;;4.00;;
75914;SDS011;64593;51.050;13.780;2023-10-13T17:14:48;14.95;;;3.85;;
75914;SDS011;64593;51.050;13.780;2023-10-13T17:20:15;10.65;;;3.78;;
75914;SDS011;64593;51.050;13.780;2023-10-13T17:25:20;14.05;;;3.70;;
75914;SDS011;64593;51.050;13.780;2023-10-13T17:30:47;16.48;;;3.83;;
75914;SDS011;64593;51.050;13.780;2023-10-13T17:35:52;15.35;;;3.65;;
75914;SDS011;64593;51.050;13.780;2023-10-13T17:41:19;11.90;;;3.58;;
75914;SDS011;64593;51.050;13.780;2023-10-13T17:46:22;8.50;;;3.55;;
75914;SDS011;64593;51.050;13.780;2023-10-13T17:51:51;10.70;;;4.03;;
75914;SDS011;64593;51.050;13.780;2023-10-13T17:57:18;13.70;;;4.30;;
75914;SDS011;64593;51.050;13.780;2023-10-13T18:02:19;7.63;;;3.95;;
75914;SDS011;64593;51.050;13.780;2023-10-13T18:07:46;11.32;;;4.18;;
75914;SDS011;64593;51.050;13.780;2023-10-13T18:13:14;13.02;;;4.38;;
75914;SDS011;64593;51.050;13.780;2023-10-13T18:18:41;13.40;;;4.43;;
75914;SDS011;64593;51.050;13.780;2023-10-13T18:24:09;11.55;;;3.97;;
75914;SDS011;64593;51.050;13.780;2023-10-13T18:34:39;15.90;;;4.55;;
75914;SDS011;64593;51.050;13.780;2023-10-13T18:39:43;12.75;;;4.13;;
75914;SDS011;64593;51.050;13.780;2023-10-13T18:44:45;9.45;;;4.22;;
75914;SDS011;64593;51.050;13.780;2023-10-13T18:49:47;7.28;;;3.72;;
75914;SDS011;64593;51.050;13.780;2023-10-13T18:55:14;10.68;;;4.55;;
75914;SDS011;64593;51.050;13.780;2023-10-13T19:00:41;14.13;;;4.70;;
75914;SDS011;64593;51.050;13.780;2023-10-13T19:05:43;9.75;;;4.70;;
75914;SDS011;64593;51.050;13.780;2023-10-13T19:11:11;9.07;;;4.25;;
75914;SDS011;64593;51.050;13.780;2023-10-13T19:16:14;9.07;;;4.40;;
75914;SDS011;64593;51.050;13.780;2023-10-13T19:21:18;9.15;;;4.15;;
75914;SDS011;64593;51.050;13.780;2023-10-13T19:26:21;15.80;;;5.97;;
75914;SDS011;64593;51.050;13.780;2023-10-13T19:31:26;10.07;;;5.10;;
75914;SDS011;64593;51.050;13.780;2023-10-13T19:36:29;13.85;;;5.13;;
75914;SDS011;64593;51.050;13.780;2023-10-13T19:41:33;12.95;;;3.90;;
75914;SDS011;64593;51.050;13.780;2023-10-13T19:46:35;10.93;;;3.80;;
75914;SDS011;64593;51.050;13.780;2023-10-13T19:51:39;12.77;;;4.60;;
75914;SDS011;64593;51.050;13.780;2023-10-13T19:56:40;8.60;;;4.00;;
75914;SDS011;64593;51.050;13.780;2023-10-13T20:02:07;12.32;;;4.25;;
75914;SDS011;64593;51.050;13.780;2023-10-13T20:07:10;10.48;;;4.32;;
75914;SDS011;64593;51.050;13.780;2023-10-13T20:12:38;13.52;;;3.97;;
75914;SDS011;64593;51.050;13.780;2023-10-13T20:17:42;8.00;;;3.50;;
75914;SDS011;64593;51.050;13.780;2023-10-13T20:22:44;8.35;;;3.30;;
75914;SDS011;64593;51.050;13.780;2023-10-13T20:27:46;9.73;;;3.55;;
75914;SDS011;64593;51.050;13.780;2023-10-13T20:32:48;10.25;;;3.85;;
75914;SDS011;64593;51.050;13.780;2023-10-13T20:37:50;12.95;;;3.03;;
75914;SDS011;64593;51.050;13.780;2023-10-13T20:43:19;9.65;;;3.72;;
75914;SDS011;64593;51.050;13.780;2023-10-13T20:48:21;8.45;;;3.38;;
75914;SDS011;64593;51.050;13.780;2023-10-13T20:53:26;7.57;;;3.50;;
75914;SDS011;64593;51.050;13.780;2023-10-13T20:58:31;14.55;;;3.45;;
75914;SDS011;64593;51.050;13.780;2023-10-13T21:03:58;11.30;;;3.20;;
75914;SDS011;64593;51.050;13.780;2023-10-13T21:09:27;7.88;;;3.13;;
75914;SDS011;64593;51.050;13.780;2023-10-13T21:14:29;9.88;;;3.50;;
75914;SDS011;64593;51.050;13.780;2023-10-13T21:19:56;10.63;;;3.22;;
75914;SDS011;64593;51.050;13.780;2023-10-13T21:24:57;9.40;;;3.22;;
75914;SDS011;64593;51.050;13.780;2023-10-13T21:30:25;6.72;;;2.42;;
75914;SDS011;64593;51.050;13.780;2023-10-13T21:35:29;7.82;;;2.92;;
75914;SDS011;64593;51.050;13.780;2023-10-13T21:40:32;12.52;;;2.63;;
75914;SDS011;64593;51.050;13.780;2023-10-13T21:45:34;9.25;;;2.25;;
75914;SDS011;64593;51.050;13.780;2023-10-13T21:51:09;11.77;;;3.10;;
75914;SDS011;64593;51.050;13.780;2023-10-13T21:56:12;12.40;;;3.85;;
